sensor_id;sensor_type;location;lat;lon;timestamp;temperature;humidity
7498;DHT22;3790;48.806;9.140;2023-04-10T00:00:09;4.90;99.90
7498;DHT22;3790;48.806;9.140;2023-04-10T00:05:10;5.00;99.90
7498;DHT22;3790;48.806;9.140;2023-04-10T00:10:10;5.00;99.90
7498;DHT22;3790;48.806;9.140;2023-04-10T00:15:11;4.90;99.90
7498;DHT22;3790;48.806;9.140;2023-04-10T00:20:12;4.90;99.90
7498;DHT22;3790;48.806;9.140;2023-04-10T00:25:12;4.90;99.90
7498;DHT22;3790;48.806;9.140;2023-04-10T00:30:13;4.80;99.90
7498;DHT22;3790;48.806;9.140;2023-04-10T00:35:13;4.60;99.90
7498;DHT22;3790;48.806;9.140;2023-04-10T00:40:13;4.40;99.90
7498;DHT22;3790;48.806;9.140;2023-04-10T00:45:14;4.20;99.90
7498;DHT22;3790;48.806;9.140;2023-04-10T00:50:15;4.20;99.90
7498;DHT22;3790;48.806;9.140;2023-04-10T00:55:16;4.30;99.90
7498;DHT22;3790;48.806;9.140;2023-04-10T01:00:17;4.30;99.90
7498;DHT22;3790;48.806;9.140;2023-04-10T01:05:18;4.20;99.90
7498;DHT22;3790;48.806;9.140;2023-04-10T01:15:22;3.70;99.90
7498;DHT22;3790;48.806;9.140;2023-04-10T01:20:25;3.60;99.90
7498;DHT22;3790;48.806;9.140;2023-04-10T01:30:42;3.40;99.90
7498;DHT22;3790;48.806;9.140;2023-04-10T01:35:48;3.40;99.90
7498;DHT22;3790;48.806;9.140;2023-04-10T01:40:51;3.50;99.90
7498;DHT22;3790;48.806;9.140;2023-04-10T01:45:52;3.40;99.90
7498;DHT22;3790;48.806;9.140;2023-04-10T01:50:54;3.50;99.90
7498;DHT22;3790;48.806;9.140;2023-04-10T01:55:55;3.50;99.90
7498;DHT22;3790;48.806;9.140;2023-04-10T02:00:55;3.60;99.90
7498;DHT22;3790;48.806;9.140;2023-04-10T02:16:28;3.60;99.90
7498;DHT22;3790;48.806;9.140;2023-04-10T02:21:29;3.70;99.90
7498;DHT22;3790;48.806;9.140;2023-04-10T02:26:31;3.80;99.90
7498;DHT22;3790;48.806;9.140;2023-04-10T02:31:43;3.80;99.90
7498;DHT22;3790;48.806;9.140;2023-04-10T02:36:44;3.80;99.90
7498;DHT22;3790;48.806;9.140;2023-04-10T02:41:45;3.80;99.90
7498;DHT22;3790;48.806;9.140;2023-04-10T02:46:45;3.70;99.90
7498;DHT22;3790;48.806;9.140;2023-04-10T02:51:46;3.50;99.90
7498;DHT22;3790;48.806;9.140;2023-04-10T02:56:46;3.30;99.90
7498;DHT22;3790;48.806;9.140;2023-04-10T03:01:47;3.30;99.90
7498;DHT22;3790;48.806;9.140;2023-04-10T03:06:50;3.50;99.90
7498;DHT22;3790;48.806;9.140;2023-04-10T03:11:51;3.50;99.90
7498;DHT22;3790;48.806;9.140;2023-04-10T03:16:51;3.40;99.90
7498;DHT22;3790;48.806;9.140;2023-04-10T03:21:52;3.40;99.90
7498;DHT22;3790;48.806;9.140;2023-04-10T03:26:52;3.60;99.90
7498;DHT22;3790;48.806;9.140;2023-04-10T03:31:53;3.60;99.90
7498;DHT22;3790;48.806;9.140;2023-04-10T03:36:53;3.40;99.90
7498;DHT22;3790;48.806;9.140;2023-04-10T03:41:54;3.20;99.90
7498;DHT22;3790;48.806;9.140;2023-04-10T03:46:55;3.10;99.90
7498;DHT22;3790;48.806;9.140;2023-04-10T03:51:55;3.00;99.90
7498;DHT22;3790;48.806;9.140;2023-04-10T03:56:56;3.00;99.90
7498;DHT22;3790;48.806;9.140;2023-04-10T04:01:57;3.10;99.90
7498;DHT22;3790;48.806;9.140;2023-04-10T04:06:57;3.00;99.90
7498;DHT22;3790;48.806;9.140;2023-04-10T04:11:58;3.10;99.90
7498;DHT22;3790;48.806;9.140;2023-04-10T04:16:58;3.20;99.90
7498;DHT22;3790;48.806;9.140;2023-04-10T04:21:59;3.10;99.90
7498;DHT22;3790;48.806;9.140;2023-04-10T04:27:00;3.10;99.90
7498;DHT22;3790;48.806;9.140;2023-04-10T04:32:01;3.00;99.90
7498;DHT22;3790;48.806;9.140;2023-04-10T04:37:02;2.90;99.90
7498;DHT22;3790;48.806;9.140;2023-04-10T04:42:04;2.90;99.90
7498;DHT22;3790;48.806;9.140;2023-04-10T04:47:06;2.80;99.90
7498;DHT22;3790;48.806;9.140;2023-04-10T04:52:07;2.90;99.90
7498;DHT22;3790;48.806;9.140;2023-04-10T04:57:08;2.90;99.90
7498;DHT22;3790;48.806;9.140;2023-04-10T05:02:09;3.10;99.90
7498;DHT22;3790;48.806;9.140;2023-04-10T05:07:09;3.30;99.90
7498;DHT22;3790;48.806;9.140;2023-04-10T05:12:10;3.40;99.90
7498;DHT22;3790;48.806;9.140;2023-04-10T05:17:10;3.60;99.90
7498;DHT22;3790;48.806;9.140;2023-04-10T05:22:11;3.70;99.90
7498;DHT22;3790;48.806;9.140;2023-04-10T05:27:11;3.90;99.90
7498;DHT22;3790;48.806;9.140;2023-04-10T05:32:13;4.00;99.90
7498;DHT22;3790;48.806;9.140;2023-04-10T05:37:13;4.30;99.90
7498;DHT22;3790;48.806;9.140;2023-04-10T05:42:14;4.60;99.90
7498;DHT22;3790;48.806;9.140;2023-04-10T05:47:15;4.80;99.90
7498;DHT22;3790;48.806;9.140;2023-04-10T05:52:16;5.20;99.90
7498;DHT22;3790;48.806;9.140;2023-04-10T05:57:16;5.50;99.90
7498;DHT22;3790;48.806;9.140;2023-04-10T06:02:17;5.80;99.90
7498;DHT22;3790;48.806;9.140;2023-04-10T06:07:18;6.10;99.90
7498;DHT22;3790;48.806;9.140;2023-04-10T06:12:18;6.20;99.90
7498;DHT22;3790;48.806;9.140;2023-04-10T06:17:19;6.30;99.90
7498;DHT22;3790;48.806;9.140;2023-04-10T06:22:20;6.40;99.90
7498;DHT22;3790;48.806;9.140;2023-04-10T06:27:21;6.40;99.90
7498;DHT22;3790;48.806;9.140;2023-04-10T06:32:21;6.50;99.90
7498;DHT22;3790;48.806;9.140;2023-04-10T06:37:31;6.60;99.90
7498;DHT22;3790;48.806;9.140;2023-04-10T06:42:32;6.70;99.90
7498;DHT22;3790;48.806;9.140;2023-04-10T06:47:33;6.70;99.90
7498;DHT22;3790;48.806;9.140;2023-04-10T06:52:33;6.80;99.90
7498;DHT22;3790;48.806;9.140;2023-04-10T06:57:34;6.90;99.90
7498;DHT22;3790;48.806;9.140;2023-04-10T07:02:34;7.00;99.90
7498;DHT22;3790;48.806;9.140;2023-04-10T07:07:35;7.00;99.90
7498;DHT22;3790;48.806;9.140;2023-04-10T07:12:35;7.10;99.90
7498;DHT22;3790;48.806;9.140;2023-04-10T07:17:36;7.50;99.90
7498;DHT22;3790;48.806;9.140;2023-04-10T07:22:36;7.90;99.90
7498;DHT22;3790;48.806;9.140;2023-04-10T07:27:37;8.20;99.90
7498;DHT22;3790;48.806;9.140;2023-04-10T07:32:37;8.50;99.90
7498;DHT22;3790;48.806;9.140;2023-04-10T07:37:39;8.80;99.90
7498;DHT22;3790;48.806;9.140;2023-04-10T07:42:40;8.90;99.90
7498;DHT22;3790;48.806;9.140;2023-04-10T07:47:40;9.20;99.90
7498;DHT22;3790;48.806;9.140;2023-04-10T07:52:41;9.30;99.90
7498;DHT22;3790;48.806;9.140;2023-04-10T07:57:41;9.50;99.90
7498;DHT22;3790;48.806;9.140;2023-04-10T08:02:42;9.70;99.90
7498;DHT22;3790;48.806;9.140;2023-04-10T08:07:42;10.00;99.90
7498;DHT22;3790;48.806;9.140;2023-04-10T08:12:43;10.30;99.90
7498;DHT22;3790;48.806;9.140;2023-04-10T08:17:43;10.60;99.90
7498;DHT22;3790;48.806;9.140;2023-04-10T08:22:44;10.90;99.90
7498;DHT22;3790;48.806;9.140;2023-04-10T08:27:44;11.20;99.90
7498;DHT22;3790;48.806;9.140;2023-04-10T08:32:45;11.30;99.90
7498;DHT22;3790;48.806;9.140;2023-04-10T08:37:46;11.40;99.90
7498;DHT22;3790;48.806;9.140;2023-04-10T08:42:46;11.60;99.90
7498;DHT22;3790;48.806;9.140;2023-04-10T08:47:49;11.70;99.90
7498;DHT22;3790;48.806;9.140;2023-04-10T08:52:51;11.90;99.90
7498;DHT22;3790;48.806;9.140;2023-04-10T08:57:55;12.00;99.90
7498;DHT22;3790;48.806;9.140;2023-04-10T09:02:56;12.30;99.90
7498;DHT22;3790;48.806;9.140;2023-04-10T09:07:57;12.60;99.90
7498;DHT22;3790;48.806;9.140;2023-04-10T09:12:58;12.60;99.90
7498;DHT22;3790;48.806;9.140;2023-04-10T09:18:00;12.60;99.90
7498;DHT22;3790;48.806;9.140;2023-04-10T09:23:21;12.80;99.90
7498;DHT22;3790;48.806;9.140;2023-04-10T09:28:22;13.00;99.90
7498;DHT22;3790;48.806;9.140;2023-04-10T09:33:23;13.20;99.70
7498;DHT22;3790;48.806;9.140;2023-04-10T09:38:24;13.40;98.80
7498;DHT22;3790;48.806;9.140;2023-04-10T09:43:26;13.50;98.80
7498;DHT22;3790;48.806;9.140;2023-04-10T09:48:26;13.70;98.60
7498;DHT22;3790;48.806;9.140;2023-04-10T09:53:27;13.80;98.30
7498;DHT22;3790;48.806;9.140;2023-04-10T09:58:28;14.00;97.40
7498;DHT22;3790;48.806;9.140;2023-04-10T10:03:28;14.30;97.50
7498;DHT22;3790;48.806;9.140;2023-04-10T10:08:30;14.50;96.20
7498;DHT22;3790;48.806;9.140;2023-04-10T10:13:43;14.70;95.90
7498;DHT22;3790;48.806;9.140;2023-04-10T10:19:08;15.00;95.00
7498;DHT22;3790;48.806;9.140;2023-04-10T10:24:11;15.40;94.70
7498;DHT22;3790;48.806;9.140;2023-04-10T10:29:14;15.60;94.30
7498;DHT22;3790;48.806;9.140;2023-04-10T10:34:16;15.90;93.70
7498;DHT22;3790;48.806;9.140;2023-04-10T10:39:41;16.40;92.40
7498;DHT22;3790;48.806;9.140;2023-04-10T10:50:03;17.50;87.80
7498;DHT22;3790;48.806;9.140;2023-04-10T11:06:02;18.60;72.60
7498;DHT22;3790;48.806;9.140;2023-04-10T11:11:05;18.60;69.70
7498;DHT22;3790;48.806;9.140;2023-04-10T11:16:08;19.50;67.00
7498;DHT22;3790;48.806;9.140;2023-04-10T11:21:21;22.50;59.80
7498;DHT22;3790;48.806;9.140;2023-04-10T11:31:39;28.90;43.80
7498;DHT22;3790;48.806;9.140;2023-04-10T11:36:43;30.00;39.60
7498;DHT22;3790;48.806;9.140;2023-04-10T11:46:46;29.00;36.60
7498;DHT22;3790;48.806;9.140;2023-04-10T11:51:48;28.90;35.80
7498;DHT22;3790;48.806;9.140;2023-04-10T11:57:06;30.20;35.50
7498;DHT22;3790;48.806;9.140;2023-04-10T12:02:10;31.00;34.90
7498;DHT22;3790;48.806;9.140;2023-04-10T12:07:12;31.20;31.80
7498;DHT22;3790;48.806;9.140;2023-04-10T12:12:12;30.00;32.10
7498;DHT22;3790;48.806;9.140;2023-04-10T12:17:15;30.70;32.30
7498;DHT22;3790;48.806;9.140;2023-04-10T12:22:16;31.50;31.40
7498;DHT22;3790;48.806;9.140;2023-04-10T12:27:24;30.50;30.00
7498;DHT22;3790;48.806;9.140;2023-04-10T12:32:28;30.40;29.90
7498;DHT22;3790;48.806;9.140;2023-04-10T12:37:50;29.70;28.80
7498;DHT22;3790;48.806;9.140;2023-04-10T12:42:51;31.10;28.80
7498;DHT22;3790;48.806;9.140;2023-04-10T12:47:52;31.10;27.60
7498;DHT22;3790;48.806;9.140;2023-04-10T12:53:05;31.00;27.50
7498;DHT22;3790;48.806;9.140;2023-04-10T12:58:19;29.50;28.10
7498;DHT22;3790;48.806;9.140;2023-04-10T13:03:19;28.20;29.60
7498;DHT22;3790;48.806;9.140;2023-04-10T13:08:21;27.50;28.40
7498;DHT22;3790;48.806;9.140;2023-04-10T13:13:22;27.10;30.60
7498;DHT22;3790;48.806;9.140;2023-04-10T13:18:22;27.30;30.90
7498;DHT22;3790;48.806;9.140;2023-04-10T13:23:23;26.80;30.00
7498;DHT22;3790;48.806;9.140;2023-04-10T13:28:23;27.70;29.70
7498;DHT22;3790;48.806;9.140;2023-04-10T13:33:24;27.70;30.00
7498;DHT22;3790;48.806;9.140;2023-04-10T13:38:25;27.60;29.60
7498;DHT22;3790;48.806;9.140;2023-04-10T13:43:26;28.60;30.10
7498;DHT22;3790;48.806;9.140;2023-04-10T13:48:27;28.90;29.90
7498;DHT22;3790;48.806;9.140;2023-04-10T13:53:27;28.30;30.00
7498;DHT22;3790;48.806;9.140;2023-04-10T13:58:28;27.80;30.30
7498;DHT22;3790;48.806;9.140;2023-04-10T14:03:31;27.50;30.80
7498;DHT22;3790;48.806;9.140;2023-04-10T14:08:31;27.00;31.20
7498;DHT22;3790;48.806;9.140;2023-04-10T14:13:32;25.60;32.90
7498;DHT22;3790;48.806;9.140;2023-04-10T14:18:32;26.20;33.80
7498;DHT22;3790;48.806;9.140;2023-04-10T14:23:33;26.40;32.10
7498;DHT22;3790;48.806;9.140;2023-04-10T14:28:33;26.10;33.30
7498;DHT22;3790;48.806;9.140;2023-04-10T14:33:34;25.90;33.10
7498;DHT22;3790;48.806;9.140;2023-04-10T14:38:34;25.90;33.30
7498;DHT22;3790;48.806;9.140;2023-04-10T14:43:36;26.20;32.40
7498;DHT22;3790;48.806;9.140;2023-04-10T14:48:36;26.30;33.40
7498;DHT22;3790;48.806;9.140;2023-04-10T14:53:38;26.60;33.60
7498;DHT22;3790;48.806;9.140;2023-04-10T14:58:38;27.70;34.00
7498;DHT22;3790;48.806;9.140;2023-04-10T15:03:39;27.10;33.70
7498;DHT22;3790;48.806;9.140;2023-04-10T15:08:40;29.00;33.50
7498;DHT22;3790;48.806;9.140;2023-04-10T15:13:44;28.50;32.30
7498;DHT22;3790;48.806;9.140;2023-04-10T15:18:48;27.40;32.90
7498;DHT22;3790;48.806;9.140;2023-04-10T15:23:48;26.80;33.20
7498;DHT22;3790;48.806;9.140;2023-04-10T15:28:49;25.80;34.10
7498;DHT22;3790;48.806;9.140;2023-04-10T15:33:50;25.30;34.90
7498;DHT22;3790;48.806;9.140;2023-04-10T15:38:51;25.10;35.30
7498;DHT22;3790;48.806;9.140;2023-04-10T15:43:52;24.50;35.80
7498;DHT22;3790;48.806;9.140;2023-04-10T15:48:52;24.10;35.70
7498;DHT22;3790;48.806;9.140;2023-04-10T15:53:53;23.50;36.90
7498;DHT22;3790;48.806;9.140;2023-04-10T15:58:53;22.60;38.00
7498;DHT22;3790;48.806;9.140;2023-04-10T16:03:54;22.00;38.50
7498;DHT22;3790;48.806;9.140;2023-04-10T16:08:55;21.20;39.50
7498;DHT22;3790;48.806;9.140;2023-04-10T16:13:55;20.80;40.10
7498;DHT22;3790;48.806;9.140;2023-04-10T16:18:56;20.70;41.20
7498;DHT22;3790;48.806;9.140;2023-04-10T16:23:57;20.20;41.30
7498;DHT22;3790;48.806;9.140;2023-04-10T16:28:58;19.90;42.40
7498;DHT22;3790;48.806;9.140;2023-04-10T16:33:58;19.80;43.80
7498;DHT22;3790;48.806;9.140;2023-04-10T16:39:02;19.90;43.20
7498;DHT22;3790;48.806;9.140;2023-04-10T16:44:03;20.10;43.30
7498;DHT22;3790;48.806;9.140;2023-04-10T16:49:03;20.00;43.70
7498;DHT22;3790;48.806;9.140;2023-04-10T16:54:04;19.90;43.90
7498;DHT22;3790;48.806;9.140;2023-04-10T16:59:05;19.50;44.70
7498;DHT22;3790;48.806;9.140;2023-04-10T17:04:05;19.10;45.30
7498;DHT22;3790;48.806;9.140;2023-04-10T17:09:07;18.70;46.70
7498;DHT22;3790;48.806;9.140;2023-04-10T17:14:07;18.30;46.90
7498;DHT22;3790;48.806;9.140;2023-04-10T17:19:09;18.00;48.30
7498;DHT22;3790;48.806;9.140;2023-04-10T17:24:10;17.70;49.50
7498;DHT22;3790;48.806;9.140;2023-04-10T17:29:10;17.40;48.80
7498;DHT22;3790;48.806;9.140;2023-04-10T17:34:10;17.20;49.30
7498;DHT22;3790;48.806;9.140;2023-04-10T17:39:11;16.90;50.10
7498;DHT22;3790;48.806;9.140;2023-04-10T17:44:11;16.70;50.20
7498;DHT22;3790;48.806;9.140;2023-04-10T17:49:12;16.40;48.90
7498;DHT22;3790;48.806;9.140;2023-04-10T17:54:13;16.30;49.10
7498;DHT22;3790;48.806;9.140;2023-04-10T17:59:13;16.10;48.60
7498;DHT22;3790;48.806;9.140;2023-04-10T18:04:13;16.00;49.60
7498;DHT22;3790;48.806;9.140;2023-04-10T18:09:14;15.90;48.70
7498;DHT22;3790;48.806;9.140;2023-04-10T18:14:15;15.70;49.00
7498;DHT22;3790;48.806;9.140;2023-04-10T18:19:16;15.60;49.70
7498;DHT22;3790;48.806;9.140;2023-04-10T18:24:16;15.40;48.60
7498;DHT22;3790;48.806;9.140;2023-04-10T18:29:16;15.40;50.60
7498;DHT22;3790;48.806;9.140;2023-04-10T18:34:17;15.20;51.10
7498;DHT22;3790;48.806;9.140;2023-04-10T18:39:17;15.00;51.10
7498;DHT22;3790;48.806;9.140;2023-04-10T18:44:18;15.00;50.60
7498;DHT22;3790;48.806;9.140;2023-04-10T18:49:18;14.90;50.90
7498;DHT22;3790;48.806;9.140;2023-04-10T18:54:19;15.00;49.50
7498;DHT22;3790;48.806;9.140;2023-04-10T18:59:20;15.00;49.10
7498;DHT22;3790;48.806;9.140;2023-04-10T19:04:20;15.00;49.10
7498;DHT22;3790;48.806;9.140;2023-04-10T19:09:21;15.10;51.80
7498;DHT22;3790;48.806;9.140;2023-04-10T19:14:21;15.20;55.70
7498;DHT22;3790;48.806;9.140;2023-04-10T19:19:22;15.20;56.40
7498;DHT22;3790;48.806;9.140;2023-04-10T19:24:22;15.30;58.30
7498;DHT22;3790;48.806;9.140;2023-04-10T19:29:23;15.30;59.30
7498;DHT22;3790;48.806;9.140;2023-04-10T19:34:23;15.30;60.60
7498;DHT22;3790;48.806;9.140;2023-04-10T19:39:24;15.30;61.50
7498;DHT22;3790;48.806;9.140;2023-04-10T19:44:24;15.30;63.70
7498;DHT22;3790;48.806;9.140;2023-04-10T19:49:25;15.30;66.00
7498;DHT22;3790;48.806;9.140;2023-04-10T19:54:26;15.20;67.60
7498;DHT22;3790;48.806;9.140;2023-04-10T19:59:27;15.20;68.70
7498;DHT22;3790;48.806;9.140;2023-04-10T20:04:27;15.20;69.60
7498;DHT22;3790;48.806;9.140;2023-04-10T20:09:28;15.20;70.70
7498;DHT22;3790;48.806;9.140;2023-04-10T20:14:28;15.10;72.30
7498;DHT22;3790;48.806;9.140;2023-04-10T20:19:29;15.10;73.50
7498;DHT22;3790;48.806;9.140;2023-04-10T20:24:29;15.10;74.80
7498;DHT22;3790;48.806;9.140;2023-04-10T20:29:30;15.00;76.90
7498;DHT22;3790;48.806;9.140;2023-04-10T20:34:30;14.90;77.80
7498;DHT22;3790;48.806;9.140;2023-04-10T20:39:31;14.90;80.30
7498;DHT22;3790;48.806;9.140;2023-04-10T20:44:35;14.80;81.60
7498;DHT22;3790;48.806;9.140;2023-04-10T20:49:36;14.80;82.40
7498;DHT22;3790;48.806;9.140;2023-04-10T20:54:37;14.80;83.20
7498;DHT22;3790;48.806;9.140;2023-04-10T20:59:40;14.80;84.20
7498;DHT22;3790;48.806;9.140;2023-04-10T21:04:41;14.80;84.80
7498;DHT22;3790;48.806;9.140;2023-04-10T21:09:41;14.80;85.80
7498;DHT22;3790;48.806;9.140;2023-04-10T21:14:42;14.70;86.90
7498;DHT22;3790;48.806;9.140;2023-04-10T21:19:43;14.70;87.50
7498;DHT22;3790;48.806;9.140;2023-04-10T21:24:43;14.60;87.60
7498;DHT22;3790;48.806;9.140;2023-04-10T21:29:44;14.60;88.80
7498;DHT22;3790;48.806;9.140;2023-04-10T21:34:45;14.50;89.70
7498;DHT22;3790;48.806;9.140;2023-04-10T21:39:45;14.40;90.00
7498;DHT22;3790;48.806;9.140;2023-04-10T21:44:45;14.40;90.20
7498;DHT22;3790;48.806;9.140;2023-04-10T21:49:46;14.40;90.30
7498;DHT22;3790;48.806;9.140;2023-04-10T21:54:46;14.40;90.30
7498;DHT22;3790;48.806;9.140;2023-04-10T21:59:47;14.50;90.40
7498;DHT22;3790;48.806;9.140;2023-04-10T22:04:47;14.50;90.20
7498;DHT22;3790;48.806;9.140;2023-04-10T22:09:48;14.40;90.10
7498;DHT22;3790;48.806;9.140;2023-04-10T22:14:50;14.40;90.30
7498;DHT22;3790;48.806;9.140;2023-04-10T22:19:51;14.40;90.40
7498;DHT22;3790;48.806;9.140;2023-04-10T22:24:51;14.30;90.80
7498;DHT22;3790;48.806;9.140;2023-04-10T22:29:52;14.30;91.00
7498;DHT22;3790;48.806;9.140;2023-04-10T22:34:52;14.20;91.50
7498;DHT22;3790;48.806;9.140;2023-04-10T22:39:53;14.10;92.00
7498;DHT22;3790;48.806;9.140;2023-04-10T22:44:55;14.00;92.60
7498;DHT22;3790;48.806;9.140;2023-04-10T22:49:55;13.90;93.40
7498;DHT22;3790;48.806;9.140;2023-04-10T22:54:56;13.90;94.00
7498;DHT22;3790;48.806;9.140;2023-04-10T22:59:57;13.80;94.70
7498;DHT22;3790;48.806;9.140;2023-04-10T23:04:57;13.80;95.50
7498;DHT22;3790;48.806;9.140;2023-04-10T23:09:59;13.70;96.10
7498;DHT22;3790;48.806;9.140;2023-04-10T23:14:59;13.70;96.70
7498;DHT22;3790;48.806;9.140;2023-04-10T23:20:00;13.80;97.20
7498;DHT22;3790;48.806;9.140;2023-04-10T23:25:01;13.80;97.70
7498;DHT22;3790;48.806;9.140;2023-04-10T23:30:01;14.00;98.30
7498;DHT22;3790;48.806;9.140;2023-04-10T23:35:03;14.00;98.70
7498;DHT22;3790;48.806;9.140;2023-04-10T23:40:04;14.00;99.00
7498;DHT22;3790;48.806;9.140;2023-04-10T23:45:05;14.00;99.60
7498;DHT22;3790;48.806;9.140;2023-04-10T23:50:06;14.00;99.90
7498;DHT22;3790;48.806;9.140;2023-04-10T23:55:07;14.10;99.90
